createdAt,value
2023-01-27T00:01:34.875Z,95451.09
2023-01-27T00:04:36.657Z,95457.53
2023-01-27T00:07:38.951Z,95454.81
2023-01-27T00:10:40.947Z,95453.16
2023-01-27T00:13:44.365Z,95459.16
2023-01-27T00:16:46.273Z,95457.91
2023-01-27T00:19:48.071Z,95456.66
2023-01-27T00:22:49.834Z,95452.91
2023-01-27T00:25:51.688Z,95458.00
2023-01-27T00:28:54.879Z,95441.94
2023-01-27T00:31:56.821Z,95449.78
2023-01-27T00:34:58.618Z,95444.41
2023-01-27T00:38:00.648Z,95446.75
2023-01-27T00:41:02.860Z,95442.88
2023-01-27T00:44:06.302Z,95443.78
2023-01-27T00:47:08.075Z,95448.91
2023-01-27T00:50:10.764Z,95442.28
2023-01-27T00:53:12.783Z,95437.41
2023-01-27T00:56:14.891Z,95442.25
2023-01-27T00:59:18.074Z,95440.88
2023-01-27T01:02:19.859Z,95443.25
2023-01-27T01:05:21.685Z,95446.00
2023-01-27T01:08:23.649Z,95447.13
2023-01-27T01:11:26.119Z,95450.28
2023-01-27T01:14:29.698Z,95443.31
2023-01-27T01:17:31.537Z,95450.91
2023-01-27T01:20:36.753Z,95445.81
2023-01-27T01:23:40.329Z,95442.94
2023-01-27T01:26:42.308Z,95450.81
2023-01-27T01:29:45.703Z,95442.03
2023-01-27T01:32:47.565Z,95446.16
2023-01-27T01:35:49.360Z,95447.16
2023-01-27T01:38:55.402Z,95449.88
2023-01-27T01:41:57.312Z,95442.81
2023-01-27T01:45:40.489Z,95441.00
2023-01-27T01:48:45.481Z,95436.97
2023-01-27T01:51:52.111Z,95431.59
2023-01-27T01:54:56.843Z,95436.47
2023-01-27T01:57:58.877Z,95434.84
2023-01-27T02:01:03.954Z,95433.78
2023-01-27T02:04:11.644Z,95428.00
2023-01-27T02:07:20.035Z,95431.44
2023-01-27T02:10:22.114Z,95431.25
2023-01-27T02:13:23.998Z,95437.75
2023-01-27T02:16:27.322Z,95433.06
2023-01-27T02:19:41.415Z,95430.72
2023-01-27T02:22:49.902Z,95430.22
2023-01-27T02:25:57.668Z,95428.59
2023-01-27T02:29:02.337Z,95433.66
2023-01-27T02:32:04.277Z,95432.22
2023-01-27T02:35:11.977Z,95435.16
2023-01-27T02:38:17.435Z,95427.75
2023-01-27T02:41:25.743Z,95408.69
2023-01-27T02:44:28.022Z,95427.44
2023-01-27T02:47:30.291Z,95410.38
2023-01-27T02:50:32.186Z,95410.69
2023-01-27T02:53:34.369Z,95423.84
2023-01-27T02:56:37.838Z,95423.84
2023-01-27T02:59:39.678Z,95422.56
2023-01-27T03:02:41.495Z,95425.22
2023-01-27T03:05:44.311Z,95422.56
2023-01-27T03:08:46.404Z,95418.31
2023-01-27T03:11:49.966Z,95417.16
2023-01-27T03:14:52.618Z,95419.47
2023-01-27T03:17:54.439Z,95412.38
2023-01-27T03:21:02.296Z,95415.19
2023-01-27T03:24:04.680Z,95418.91
2023-01-27T03:27:07.919Z,95415.78
2023-01-27T03:30:10.637Z,95419.88
2023-01-27T03:33:12.607Z,95418.59
2023-01-27T03:36:14.558Z,95419.88
2023-01-27T03:39:16.438Z,95425.94
2023-01-27T03:42:19.711Z,95420.97
2023-01-27T03:45:21.626Z,95425.03
2023-01-27T03:48:23.832Z,95424.75
2023-01-27T03:51:27.227Z,95417.53
2023-01-27T03:54:29.046Z,95421.25
2023-01-27T03:57:32.532Z,95410.06
2023-01-27T04:00:34.332Z,95411.03
2023-01-27T04:03:36.294Z,95415.06
2023-01-27T04:06:40.593Z,95417.28
2023-01-27T04:09:42.425Z,95412.31
2023-01-27T04:12:48.162Z,95411.25
2023-01-27T04:15:54.993Z,95408.47
2023-01-27T04:18:57.331Z,95417.81
2023-01-27T04:22:00.758Z,95419.75
2023-01-27T04:25:02.762Z,95420.50
2023-01-27T04:28:05.983Z,95425.38
2023-01-27T04:31:07.933Z,95420.56
2023-01-27T04:34:11.050Z,95421.50
2023-01-27T04:37:12.837Z,95412.00
2023-01-27T04:40:14.979Z,95410.44
2023-01-27T04:43:18.388Z,95418.09
2023-01-27T04:46:20.421Z,95418.56
2023-01-27T04:49:22.215Z,95419.03
2023-01-27T04:52:24.265Z,95420.00
2023-01-27T04:55:26.690Z,95428.91
2023-01-27T04:58:30.128Z,95424.53
2023-01-27T05:01:32.162Z,95421.28
2023-01-27T05:04:33.927Z,95429.25
2023-01-27T05:07:35.874Z,95427.38
2023-01-27T05:10:37.881Z,95431.28
2023-01-27T05:13:41.456Z,95437.97
2023-01-27T05:16:43.457Z,95441.25
2023-01-27T05:19:45.277Z,95437.78
2023-01-27T05:22:47.165Z,95434.50
2023-01-27T05:25:49.006Z,95434.75
2023-01-27T05:28:53.076Z,95439.88
2023-01-27T05:31:55.124Z,95434.00
2023-01-27T05:34:56.933Z,95431.19
2023-01-27T05:37:58.922Z,95429.31
2023-01-27T05:41:02.617Z,95428.25
2023-01-27T05:44:06.290Z,95424.63
2023-01-27T05:47:09.033Z,95434.97
2023-01-27T05:50:12.500Z,95434.06
2023-01-27T05:53:17.642Z,95429.69
2023-01-27T05:56:20.482Z,95425.41
2023-01-27T05:59:24.385Z,95420.25
2023-01-27T06:02:27.216Z,95422.28
2023-01-27T06:05:29.301Z,95422.16
2023-01-27T06:08:35.066Z,95430.53
2023-01-27T06:11:36.955Z,95432.44
2023-01-27T06:14:40.368Z,95431.34
2023-01-27T06:17:42.243Z,95442.75
2023-01-27T06:20:45.005Z,95439.53
2023-01-27T06:23:47.371Z,95441.69
2023-01-27T06:26:49.126Z,95448.25
2023-01-27T06:29:52.292Z,95450.00
2023-01-27T06:32:55.354Z,95456.84
2023-01-27T06:36:01.155Z,95453.75
2023-01-27T06:39:03.247Z,95456.41
2023-01-27T06:42:05.191Z,95465.38
2023-01-27T06:45:09.603Z,95460.66
2023-01-27T06:48:11.831Z,95462.72
2023-01-27T06:51:14.117Z,95470.84
2023-01-27T06:54:19.583Z,95468.78
2023-01-27T06:57:21.952Z,95470.25
2023-01-27T07:00:25.384Z,95470.25
2023-01-27T07:03:27.254Z,95474.28
2023-01-27T07:06:29.137Z,95476.97
2023-01-27T07:09:37.537Z,95479.34
2023-01-27T07:12:45.422Z,95481.66
2023-01-27T07:15:54.627Z,95478.06
2023-01-27T07:18:57.252Z,95477.88
2023-01-27T07:21:59.491Z,95484.41
2023-01-27T07:25:03.119Z,95487.69
2023-01-27T07:28:05.828Z,95497.22
2023-01-27T07:31:09.501Z,95502.34
2023-01-27T07:34:12.307Z,95498.66
2023-01-27T07:37:14.634Z,95499.97
2023-01-27T07:40:17.171Z,95501.13
2023-01-27T07:43:19.398Z,95506.28
2023-01-27T07:46:26.017Z,95503.03
2023-01-27T07:49:27.924Z,95506.47
2023-01-27T07:52:33.648Z,95510.22
2023-01-27T07:55:35.570Z,95515.69
2023-01-27T07:58:38.173Z,95509.31
2023-01-27T08:01:42.394Z,95516.81
2023-01-27T08:04:52.849Z,95513.22
2023-01-27T08:07:58.629Z,95518.22
2023-01-27T08:11:01.091Z,95512.13
2023-01-27T08:14:03.234Z,95511.00
2023-01-27T08:17:06.511Z,95515.13
2023-01-27T08:20:10.169Z,95514.47
2023-01-27T08:23:12.025Z,95518.09
2023-01-27T08:26:14.665Z,95518.28
2023-01-27T08:29:18.022Z,95513.16
2023-01-27T08:32:21.540Z,95525.63
2023-01-27T08:35:23.478Z,95525.81
2023-01-27T08:38:25.341Z,95528.03
2023-01-27T08:41:27.677Z,95528.69
2023-01-27T08:44:29.583Z,95525.72
2023-01-27T08:47:32.912Z,95530.13
2023-01-27T08:50:35.758Z,95530.44
2023-01-27T08:53:39.197Z,95532.00
2023-01-27T08:56:41.413Z,95537.66
2023-01-27T08:59:44.487Z,95531.63
2023-01-27T09:02:47.895Z,95533.78
2023-01-27T09:05:49.780Z,95531.22
2023-01-27T09:08:52.284Z,95533.53
2023-01-27T09:11:54.110Z,95531.09
2023-01-27T09:14:56.116Z,95524.41
2023-01-27T09:17:59.427Z,95528.00
2023-01-27T09:21:08.709Z,95528.72
2023-01-27T09:24:10.771Z,95534.03
2023-01-27T09:27:12.835Z,95541.41
2023-01-27T09:30:16.443Z,95541.56
2023-01-27T09:33:20.143Z,95547.63
2023-01-27T09:36:22.458Z,95551.44
2023-01-27T09:39:25.952Z,95547.28
2023-01-27T09:42:42.428Z,95552.25
2023-01-27T09:46:09.110Z,95554.63
2023-01-27T09:49:25.719Z,95548.19
2023-01-27T09:52:47.854Z,95548.09
2023-01-27T09:55:57.825Z,95545.19
2023-01-27T09:59:13.297Z,95541.38
2023-01-27T10:02:33.661Z,95556.00
2023-01-27T10:05:55.563Z,95556.06
2023-01-27T10:09:12.112Z,95560.34
2023-01-27T10:12:35.270Z,95550.66
2023-01-27T10:15:55.646Z,95555.16
2023-01-27T10:19:21.236Z,95548.84
2023-01-27T10:22:34.084Z,95546.19
2023-01-27T10:25:48.930Z,95557.16
2023-01-27T10:28:56.392Z,95554.41
2023-01-27T10:32:06.926Z,95548.91
2023-01-27T10:35:16.731Z,95547.94
2023-01-27T10:38:32.851Z,95540.41
2023-01-27T10:41:43.773Z,95540.00
2023-01-27T10:45:05.585Z,95540.50
2023-01-27T10:48:27.832Z,95535.16
2023-01-27T10:51:33.853Z,95529.03
2023-01-27T10:54:42.743Z,95521.75
2023-01-27T10:57:50.757Z,95529.53
2023-01-27T11:01:19.915Z,95538.63
2023-01-27T11:04:27.712Z,95539.22
2023-01-27T11:07:32.764Z,95529.09
2023-01-27T11:10:41.507Z,95530.47
2023-01-27T11:13:43.993Z,95530.50
2023-01-27T11:16:49.652Z,95530.25
2023-01-27T11:19:58.724Z,95531.38
2023-01-27T11:23:04.030Z,95530.84
2023-01-27T11:26:20.317Z,95528.34
2023-01-27T11:29:32.199Z,95523.69
2023-01-27T11:32:48.161Z,95530.25
2023-01-27T11:35:51.356Z,95528.88
2023-01-27T11:38:54.750Z,95524.78
2023-01-27T11:41:58.113Z,95521.47
2023-01-27T11:45:01.791Z,95516.94
2023-01-27T11:48:08.502Z,95510.03
2023-01-27T11:51:15.770Z,95517.19
2023-01-27T11:54:21.822Z,95516.16
2023-01-27T11:57:26.546Z,95517.34
2023-01-27T12:00:33.850Z,95510.22
2023-01-27T12:03:48.972Z,95520.31
2023-01-27T12:06:55.198Z,95516.00
2023-01-27T12:09:57.060Z,95509.44
2023-01-27T12:13:07.355Z,95507.13
2023-01-27T12:16:09.336Z,95508.97
2023-01-27T12:19:24.259Z,95505.34
2023-01-27T12:22:31.321Z,95503.13
2023-01-27T12:25:44.816Z,95501.28
2023-01-27T12:28:53.287Z,95503.78
2023-01-27T12:32:01.198Z,95502.66
2023-01-27T12:35:04.341Z,95501.44
2023-01-27T12:38:15.186Z,95502.84
2023-01-27T12:41:25.341Z,95508.75
2023-01-27T12:44:41.338Z,95501.59
2023-01-27T12:47:56.437Z,95501.88
2023-01-27T12:51:06.730Z,95505.50
2023-01-27T12:54:17.511Z,95499.53
2023-01-27T12:57:21.388Z,95499.38
2023-01-27T13:00:26.579Z,95494.72
2023-01-27T13:03:29.596Z,95498.44
2023-01-27T13:06:39.314Z,95494.91
2023-01-27T13:09:50.530Z,95507.56
2023-01-27T13:12:54.931Z,95500.69
2023-01-27T13:16:05.418Z,95502.03
2023-01-27T13:19:17.078Z,95494.56
2023-01-27T13:22:21.696Z,95495.53
2023-01-27T13:25:28.305Z,95492.13
2023-01-27T13:28:51.340Z,95497.44
2023-01-27T13:32:01.967Z,95500.09
2023-01-27T13:35:13.574Z,95500.75
2023-01-27T13:38:23.130Z,95497.94
2023-01-27T13:41:41.320Z,95509.00
2023-01-27T13:44:48.167Z,95514.13
2023-01-27T13:47:57.604Z,95510.38
2023-01-27T13:51:05.535Z,95507.81
2023-01-27T13:54:07.506Z,95517.84
2023-01-27T13:57:25.675Z,95519.22
2023-01-27T14:00:35.404Z,95524.34
2023-01-27T14:04:04.942Z,95519.41
2023-01-27T14:07:17.856Z,95524.56
2023-01-27T14:10:25.517Z,95519.22
2023-01-27T14:13:40.197Z,95525.63
2023-01-27T14:16:58.207Z,95520.16
2023-01-27T14:20:19.042Z,95516.88
2023-01-27T14:23:34.500Z,95518.91
2023-01-27T14:26:50.562Z,95521.91
2023-01-27T14:30:00.018Z,95521.31
2023-01-27T14:33:12.264Z,95523.47
2023-01-27T14:36:20.508Z,95526.72
2023-01-27T14:39:31.306Z,95524.72
2023-01-27T14:42:42.719Z,95527.22
2023-01-27T14:45:51.004Z,95518.59
2023-01-27T14:49:08.675Z,95525.03
2023-01-27T14:52:23.856Z,95525.63
2023-01-27T14:55:37.601Z,95528.00
2023-01-27T14:58:51.105Z,95519.22
2023-01-27T15:02:01.351Z,95523.13
2023-01-27T15:05:12.488Z,95518.91
2023-01-27T15:08:24.876Z,95513.28
2023-01-27T15:11:39.861Z,95522.66
2023-01-27T15:15:03.392Z,95523.44
2023-01-27T15:18:27.875Z,95527.44
2023-01-27T15:21:55.137Z,95525.88
2023-01-27T15:25:26.144Z,95529.91
2023-01-27T15:28:31.265Z,95527.91
2023-01-27T15:31:33.677Z,95527.88
2023-01-27T15:34:35.804Z,95528.22
2023-01-27T15:37:56.198Z,95535.59
2023-01-27T15:41:16.383Z,95533.44
2023-01-27T15:44:27.240Z,95541.06
2023-01-27T15:47:31.594Z,95534.66
2023-01-27T15:50:38.412Z,95531.38
2023-01-27T15:53:48.021Z,95539.47
2023-01-27T15:56:53.836Z,95533.88
2023-01-27T16:00:02.558Z,95557.28
2023-01-27T16:03:14.950Z,95551.59
2023-01-27T16:06:21.808Z,95561.13
2023-01-27T16:09:32.475Z,95565.03
2023-01-27T16:12:41.599Z,95567.00
2023-01-27T16:15:43.966Z,95566.06
2023-01-27T16:18:51.689Z,95570.16
2023-01-27T16:21:57.755Z,95568.97
2023-01-27T16:25:11.684Z,95573.53
2023-01-27T16:28:20.370Z,95573.59
2023-01-27T16:31:26.727Z,95580.91
2023-01-27T16:34:35.204Z,95577.16
2023-01-27T16:37:44.139Z,95581.66
2023-01-27T16:40:49.191Z,95580.91
2023-01-27T16:43:58.265Z,95582.75
2023-01-27T16:47:14.962Z,95583.84
2023-01-27T16:50:40.582Z,95586.56
2023-01-27T16:53:48.463Z,95586.94
2023-01-27T16:56:52.852Z,95582.72
2023-01-27T16:59:59.199Z,95585.97
2023-01-27T17:03:08.325Z,95586.94
2023-01-27T17:06:16.039Z,95596.06
2023-01-27T17:09:23.787Z,95598.91
2023-01-27T17:12:31.526Z,95590.84
2023-01-27T17:15:38.663Z,95591.44
2023-01-27T17:18:52.301Z,95593.34
2023-01-27T17:21:59.972Z,95601.63
2023-01-27T17:29:35.528Z,95598.72
2023-01-27T17:32:42.043Z,95607.47
2023-01-27T17:35:49.907Z,95610.97
2023-01-27T17:38:55.022Z,95608.91
2023-01-27T17:41:57.439Z,95607.28
2023-01-27T17:45:21.950Z,95602.53
2023-01-27T17:48:29.685Z,95607.25
2023-01-27T17:51:37.941Z,95610.25
2023-01-27T17:54:41.538Z,95605.72
2023-01-27T17:57:45.977Z,95610.41
2023-01-27T18:00:49.186Z,95609.75
2023-01-27T18:03:56.949Z,95604.88
2023-01-27T18:06:59.636Z,95616.94
2023-01-27T18:10:01.661Z,95605.84
2023-01-27T18:13:14.165Z,95597.72
2023-01-27T18:16:17.917Z,95617.47
2023-01-27T18:19:23.190Z,95614.16
2023-01-27T18:22:26.276Z,95616.63
2023-01-27T18:25:29.874Z,95613.66
2023-01-27T18:28:35.952Z,95623.84
2023-01-27T18:31:46.188Z,95627.75
2023-01-27T18:34:55.262Z,95628.41
2023-01-27T18:37:59.595Z,95626.84
2023-01-27T18:41:11.109Z,95629.88
2023-01-27T18:44:14.939Z,95634.03
2023-01-27T18:47:26.272Z,95641.41
2023-01-27T18:50:31.664Z,95640.78
2023-01-27T18:53:35.821Z,95652.59
2023-01-27T18:56:39.007Z,95653.09
2023-01-27T18:59:42.657Z,95655.44
2023-01-27T19:02:47.528Z,95651.38
2023-01-27T19:05:53.436Z,95656.81
2023-01-27T19:08:56.105Z,95661.09
2023-01-27T19:11:59.081Z,95652.91
2023-01-27T19:15:02.266Z,95651.63
2023-01-27T19:18:15.364Z,95651.50
2023-01-27T19:21:20.774Z,95653.25
2023-01-27T19:24:24.346Z,95657.66
2023-01-27T19:27:28.096Z,95659.56
2023-01-27T19:30:31.588Z,95655.03
2023-01-27T19:33:34.806Z,95668.03
2023-01-27T19:36:43.877Z,95667.41
2023-01-27T19:39:47.547Z,95658.50
2023-01-27T19:42:54.714Z,95675.66
2023-01-27T19:45:57.406Z,95679.56
2023-01-27T19:49:00.023Z,95672.91
2023-01-27T19:52:05.013Z,95678.22
2023-01-27T19:55:13.109Z,95679.47
2023-01-27T19:58:23.609Z,95689.00
2023-01-27T20:01:26.943Z,95688.38
2023-01-27T20:04:29.694Z,95691.66
2023-01-27T20:07:33.969Z,95694.16
2023-01-27T20:10:36.760Z,95688.38
2023-01-27T20:13:39.824Z,95686.19
2023-01-27T20:16:43.796Z,95687.78
2023-01-27T20:19:47.412Z,95692.47
2023-01-27T20:22:51.985Z,95696.81
2023-01-27T20:29:15.545Z,95706.53
2023-01-27T20:32:17.788Z,95700.28
2023-01-27T20:35:22.997Z,95704.94
2023-01-27T20:38:29.263Z,95709.31
2023-01-27T20:41:32.192Z,95709.00
2023-01-27T20:44:38.613Z,95710.41
2023-01-27T20:47:41.227Z,95710.41
2023-01-27T20:50:44.511Z,95711.97
2023-01-27T20:53:49.333Z,95704.78
2023-01-27T20:56:52.417Z,95702.75
2023-01-27T20:59:58.642Z,95700.28
2023-01-27T21:03:01.555Z,95697.13
2023-01-27T21:06:06.343Z,95689.94
2023-01-27T21:09:11.234Z,95702.13
2023-01-27T21:12:13.660Z,95689.34
2023-01-27T21:15:16.609Z,95694.97
2023-01-27T21:18:19.264Z,95694.47
2023-01-27T21:21:23.881Z,95699.78
2023-01-27T21:24:31.607Z,95702.75
2023-01-27T21:27:35.896Z,95701.94
2023-01-27T21:30:38.253Z,95701.78
2023-01-27T21:33:41.253Z,95711.31
2023-01-27T21:36:43.416Z,95705.69
2023-01-27T21:39:47.358Z,95705.09
2023-01-27T21:42:49.602Z,95706.59
2023-01-27T21:45:57.200Z,95715.88
2023-01-27T21:48:59.459Z,95708.47
2023-01-27T21:52:01.709Z,95724.22
2023-01-27T21:55:07.593Z,95718.97
2023-01-27T21:58:09.958Z,95716.75
2023-01-27T22:01:12.485Z,95723.66
2023-01-27T22:04:15.514Z,95727.03
2023-01-27T22:07:19.321Z,95720.16
2023-01-27T22:10:27.650Z,95714.25
2023-01-27T22:13:29.538Z,95727.22
2023-01-27T22:16:31.602Z,95721.00
2023-01-27T22:19:33.616Z,95720.34
2023-01-27T22:22:35.471Z,95714.75
2023-01-27T22:25:38.878Z,95724.56
2023-01-27T22:28:40.829Z,95714.75
2023-01-27T22:31:43.127Z,95716.59
2023-01-27T22:34:46.339Z,95717.03
2023-01-27T22:37:48.937Z,95709.56
2023-01-27T22:40:56.797Z,95710.88
2023-01-27T22:43:58.619Z,95717.34
2023-01-27T22:47:00.958Z,95719.91
2023-01-27T22:50:03.399Z,95717.19
2023-01-27T22:53:05.594Z,95715.78
2023-01-27T22:56:09.612Z,95716.81
2023-01-27T22:59:12.927Z,95715.91
2023-01-27T23:02:15.271Z,95722.47
2023-01-27T23:05:17.874Z,95719.44
2023-01-27T23:08:20.152Z,95712.94
2023-01-27T23:11:24.225Z,95717.34
2023-01-27T23:14:26.248Z,95723.03
2023-01-27T23:17:28.060Z,95716.41
2023-01-27T23:20:30.088Z,95716.97
2023-01-27T23:23:31.990Z,95719.09
2023-01-27T23:26:35.556Z,95721.16
2023-01-27T23:29:37.397Z,95718.59
2023-01-27T23:32:39.504Z,95721.34
2023-01-27T23:35:42.111Z,95720.66
2023-01-27T23:38:44.171Z,95719.31
2023-01-27T23:41:47.621Z,95725.06
2023-01-27T23:44:49.892Z,95729.09
2023-01-27T23:47:51.753Z,95731.16
2023-01-27T23:50:55.075Z,95728.50
2023-01-27T23:53:56.868Z,95725.50
2023-01-27T23:57:00.596Z,95723.47
